Voyageurs National Park, MN

06:28 AM CDT die 31o July, anno 2014 (GMT -0500)
Falls International (KINL) Elev 1181 ft | 48.56 °N, 93.40 °W | Change Station

Current weather conditions updated 5 minutes ago

Fog
Caligo
48 °F
Feels Like 48 °F
N
0
Ventus Variabilis Ventus from Aquilo

Today is forecast to be nearly the same temperature as yesterday.

Hodie
High -- | Low -- °F
--% Chance of Precip.
Yesterday
High -- | Low -- °F
Precip. -- in
5:46 AM 8:52 PM
Waxing Crescent, 18% visible
Pressio 30.00 in
Visibilitas 0.2 milia passuum
Clouds Serena
Frigus in quo Ros apparet 48 °F
Umor 100%
Rainfall 0.00 in
Snow Depth Not available.
UV 0 out of 12
Pollen 6.80 out of 12
Air Quality Not available.
Flu Activity Not available.
SPECI KINL 311123Z AUTO 00000KT 1/4SM FG CLR 09/09 A3000 RMK AO2 T00890089

More Conditions Fewer Conditions

Pressio 30.00 in
Visibilitas 0.2 milia passuum
Clouds Serena
Frigus in quo Ros apparet 48 °F
Umor 100%
Rainfall 0.00 in
Snow Depth Not available.
UV 0 out of 12
Pollen 6.80 out of 12
Air Quality Not available.
Flu Activity Not available.
SPECI KINL 311123Z AUTO 00000KT 1/4SM FG CLR 09/09 A3000 RMK AO2 T00890089

More Conditions Fewer Conditions

10-Day Weather Forecast

Almanac

Astronomy

Jul. 31, 2014 Rise Set
Actual Time 5:46 AM CDT 8:52 PM CDT
Civil Twilight 5:09 AM CDT 9:29 PM CDT
Nautical Twilight 4:20 AM CDT 10:17 PM CDT
Astronomical Twilight 3:20 AM CDT 11:17 PM CDT
Moon 10:41 AM CDT 10:37 PM CDT
Length Of Visible Light 16h 20m
Length of Day
15h 05m
Tomorrow will be 2m 46s shorter.
Waxing Crescent, 18% of the Moon is Illuminated
Hodie
Waxing Crescent
Aug 3
First Quarter
Aug 10
Full
Aug 17
Last Quarter
Aug 25
New

Today's Extremes

State Highs State Lows

Community

WunderPhotos

Upload Photos

1,739,296 photos uploaded!

WunderBlogs® & News

Nearby

Snow Depth

Station Depth Elevation
No new snow has been reported.

Earthquake Activity

City Distance Mag. Time & Date
No recent earthquake activity has been reported nearby.
Minimum magnitude displayed is 2.5.

Coastal Water Temperatures

Locus Calor
No Stations Reporting

Nearby Weather Stations

Station Location Temp Frigus Venti Frigus in quo Ros apparet Umor Ventus Precip. Elev Renovata Type
Wayside Lane, International Falls, MN 53.4 °F - 53 °F 97% Magis Aquilo quam Eurus  -  0.0 mph 0.00 in / hr 1115 ft 6:24 AM CDT Normal
Rainy Lake, Fort Frances 53.9 °F - 53 °F 96% Magis Aquilo quam Eurus  -  0.0 mph 0.00 in / hr 1140 ft 6:28 AM CDT Rapid Fire
Crabtree Blvd, International Falls, MN 54.3 °F - 54 °F 97% Inter Aquilonem et Eurum  -  0.0 mph - / hr 1122 ft 6:28 AM CDT Rapid Fire
LaVallee, Devlin 46.0 °F 46 °F 45 °F 96% Aquilo  -  0.0 mph 0.00 in / hr 1142 ft 6:20 AM CDT Normal
HADS LITTLEFORK RIVER NEAR LITTLEFORK MN, Littlefork, MN 54 °F - - - Aquilo  -  - 0.00 in / hr 1125 ft 5:30 AM CDT MADIS
RAWS KABNAM MN, Ray, MN 51 °F - 51 °F 99% Aquilo  -  0 mph 0.00 in / hr 1200 ft 5:31 AM CDT MADIS

Show More Stations Show Fewer Stations